Time;durP1;ratioP1;P1;durP2;ratioP2;P2;SDS_P1;SDS_P2;PMS_P1;PMS_P2;Temp;Humidity;BMP_temperature;BMP_pressure;BME280_temperature;BME280_humidity;BME280_pressure;Samples;Min_cycle;Max_cycle;Signal;HPM_P1;HPM_P2
2022/08/07 00:01:10;;;;;;;4.95;2.80;;;;;;;;;;5101135;28;20043;-73
2022/08/07 00:03:36;;;;;;;3.40;2.50;;;;;;;;;;5106560;28;20046;-73
2022/08/07 00:06:03;;;;;;;5.00;2.78;;;;;;;;;;5112477;28;20050;-73
2022/08/07 00:08:29;;;;;;;4.05;2.53;;;;;;;;;;5114364;28;20039;-73
2022/08/07 00:10:55;;;;;;;3.92;2.88;;;;;;;;;;5115243;28;20137;-73
2022/08/07 00:13:21;;;;;;;5.65;2.70;;;;;;;;;;5098235;28;20032;-73
2022/08/07 00:15:48;;;;;;;5.65;2.97;;;;;;;;;;5094919;28;20127;-73
2022/08/07 00:18:15;;;;;;;2.63;2.42;;;;;;;;;;5094372;28;20562;-73
2022/08/07 00:20:41;;;;;;;6.38;2.70;;;;;;;;;;5106525;28;20039;-73
2022/08/07 00:23:07;;;;;;;3.05;2.72;;;;;;;;;;5096105;28;20044;-73
2022/08/07 00:25:35;;;;;;;8.68;2.95;;;;;;;;;;5101219;28;20503;-73
2022/08/07 00:28:01;;;;;;;7.68;3.15;;;;;;;;;;5115200;28;20040;-73
2022/08/07 00:30:28;;;;;;;4.70;2.70;;;;;;;;;;5104578;28;20040;-73
2022/08/07 00:32:55;;;;;;;4.43;2.90;;;;;;;;;;5094469;28;20094;-73
2022/08/07 00:35:21;;;;;;;4.38;2.92;;;;;;;;;;5097575;28;20514;-73
2022/08/07 00:37:47;;;;;;;7.05;2.65;;;;;;;;;;5107604;28;20041;-73
2022/08/07 00:40:14;;;;;;;5.55;3.03;;;;;;;;;;5103173;28;20699;-73
2022/08/07 00:42:41;;;;;;;3.70;2.90;;;;;;;;;;5105756;28;20138;-73
2022/08/07 00:45:09;;;;;;;8.40;2.75;;;;;;;;;;5099547;28;20074;-73
2022/08/07 00:47:35;;;;;;;5.93;2.78;;;;;;;;;;5101193;28;20131;-73
2022/08/07 00:50:01;;;;;;;4.72;2.60;;;;;;;;;;5094171;28;20487;-73
2022/08/07 00:52:28;;;;;;;5.47;2.63;;;;;;;;;;5094911;28;20085;-73
2022/08/07 00:54:54;;;;;;;3.60;2.72;;;;;;;;;;5094820;28;20540;-73
2022/08/07 00:57:21;;;;;;;3.90;2.53;;;;;;;;;;5096396;28;20039;-73
2022/08/07 00:59:48;;;;;;;3.53;2.95;;;;;;;;;;5104694;28;20043;-73
2022/08/07 01:02:14;;;;;;;3.42;2.30;;;;;;;;;;5094450;28;20036;-73
2022/08/07 01:04:40;;;;;;;3.25;2.67;;;;;;;;;;5110787;28;20047;-73
2022/08/07 01:07:07;;;;;;;3.20;2.63;;;;;;;;;;5114827;28;20040;-73
2022/08/07 01:09:33;;;;;;;2.90;2.50;;;;;;;;;;5114002;28;20036;-73
2022/08/07 01:11:59;;;;;;;4.72;2.53;;;;;;;;;;5109300;28;20487;-73
2022/08/07 01:14:27;;;;;;;4.55;2.85;;;;;;;;;;5110169;28;20087;-73
2022/08/07 01:16:53;;;;;;;5.57;2.95;;;;;;;;;;5078114;28;20471;-73
2022/08/07 01:19:21;;;;;;;3.10;2.60;;;;;;;;;;5111409;28;20074;-73
2022/08/07 01:21:48;;;;;;;2.92;2.63;;;;;;;;;;5106608;28;20036;-73
2022/08/07 01:24:15;;;;;;;5.82;2.70;;;;;;;;;;5105442;28;20065;-73
2022/08/07 01:26:41;;;;;;;3.30;2.88;;;;;;;;;;5108790;28;20047;-73
2022/08/07 01:29:07;;;;;;;4.15;2.70;;;;;;;;;;5106269;28;20040;-73
2022/08/07 01:31:34;;;;;;;6.32;2.78;;;;;;;;;;5098040;28;20483;-73
2022/08/07 01:34:01;;;;;;;3.70;2.72;;;;;;;;;;5097872;28;20070;-73
2022/08/07 01:36:28;;;;;;;5.25;2.78;;;;;;;;;;5097612;28;20527;-73
2022/08/07 01:38:55;;;;;;;4.68;2.95;;;;;;;;;;5097538;28;20048;-73
2022/08/07 01:41:22;;;;;;;5.22;2.70;;;;;;;;;;5097634;28;20056;-73
2022/08/07 01:43:48;;;;;;;6.65;2.65;;;;;;;;;;5097766;28;20052;-72
2022/08/07 01:46:15;;;;;;;6.28;3.42;;;;;;;;;;5096887;28;20047;-72
2022/08/07 01:48:42;;;;;;;2.85;2.65;;;;;;;;;;5102718;28;20043;-72
2022/08/07 01:51:09;;;;;;;3.85;2.75;;;;;;;;;;5108121;28;20117;-72
2022/08/07 01:53:38;;;;;;;6.53;2.90;;;;;;;;;;5097484;28;20079;-72
2022/08/07 01:56:10;;;;;;;5.55;2.60;;;;;;;;;;5097167;28;20195;-72
2022/08/07 01:58:38;;;;;;;4.28;2.58;;;;;;;;;;5097380;28;20119;-72
2022/08/07 02:01:08;;;;;;;6.20;2.95;;;;;;;;;;5097232;28;20043;-72
2022/08/07 02:03:37;;;;;;;2.93;2.63;;;;;;;;;;5097013;28;20071;-72
2022/08/07 02:06:06;;;;;;;5.97;3.10;;;;;;;;;;5097364;28;20301;-72
2022/08/07 02:08:36;;;;;;;4.70;3.00;;;;;;;;;;5096595;28;20494;-72
2022/08/07 02:11:03;;;;;;;3.10;2.83;;;;;;;;;;5097003;28;20028;-72
2022/08/07 02:13:31;;;;;;;6.57;2.72;;;;;;;;;;5096998;28;20043;-72
2022/08/07 02:15:58;;;;;;;6.32;2.95;;;;;;;;;;5097101;28;20136;-72
2022/08/07 02:18:26;;;;;;;5.72;2.97;;;;;;;;;;5107562;28;20045;-72
2022/08/07 02:20:54;;;;;;;6.60;2.90;;;;;;;;;;5096913;28;20178;-72
2022/08/07 02:23:22;;;;;;;4.00;2.95;;;;;;;;;;5096496;28;20506;-72
2022/08/07 02:25:48;;;;;;;6.60;3.30;;;;;;;;;;5096254;28;20051;-72
2022/08/07 02:28:15;;;;;;;6.43;3.03;;;;;;;;;;5096798;28;20497;-72
2022/08/07 02:30:42;;;;;;;8.80;3.05;;;;;;;;;;5096318;28;20044;-72
2022/08/07 02:33:08;;;;;;;4.70;3.05;;;;;;;;;;5096393;28;20032;-72
2022/08/07 02:35:36;;;;;;;4.80;2.80;;;;;;;;;;5096647;28;20058;-73
2022/08/07 02:38:03;;;;;;;4.80;2.63;;;;;;;;;;5096289;28;20035;-72
2022/08/07 02:40:31;;;;;;;5.28;3.13;;;;;;;;;;5096418;28;20043;-72
2022/08/07 02:42:57;;;;;;;3.03;2.72;;;;;;;;;;5096524;28;20083;-72
2022/08/07 02:45:25;;;;;;;3.92;2.50;;;;;;;;;;5096068;28;20036;-72
2022/08/07 02:47:51;;;;;;;3.65;2.85;;;;;;;;;;5096420;28;20100;-72
2022/08/07 02:50:17;;;;;;;3.00;2.75;;;;;;;;;;5096082;28;20478;-72
2022/08/07 02:52:53;;;;;;;5.10;2.90;;;;;;;;;;5096334;28;20040;-72
2022/08/07 02:55:23;;;;;;;2.97;2.70;;;;;;;;;;5095624;28;20051;-72
2022/08/07 02:57:49;;;;;;;4.90;2.80;;;;;;;;;;5095119;28;20114;-72
2022/08/07 03:00:16;;;;;;;3.17;2.60;;;;;;;;;;5096039;28;20115;-72
2022/08/07 03:02:45;;;;;;;3.35;2.88;;;;;;;;;;5094023;28;20082;-72
2022/08/07 03:05:11;;;;;;;5.53;3.25;;;;;;;;;;5091730;28;20546;-72
2022/08/07 03:07:38;;;;;;;4.38;3.10;;;;;;;;;;5093663;28;20039;-72
2022/08/07 03:10:05;;;;;;;5.68;3.33;;;;;;;;;;5093874;28;20123;-72
2022/08/07 03:12:31;;;;;;;8.70;2.65;;;;;;;;;;5107190;28;20027;-72
2022/08/07 03:14:58;;;;;;;3.58;3.00;;;;;;;;;;5099445;28;20118;-72
2022/08/07 03:17:24;;;;;;;3.30;3.00;;;;;;;;;;5098988;28;20040;-72
2022/08/07 03:19:51;;;;;;;4.80;3.08;;;;;;;;;;5095399;28;20040;-72
2022/08/07 03:22:18;;;;;;;4.72;3.08;;;;;;;;;;5097045;28;20036;-72
2022/08/07 03:24:44;;;;;;;6.68;3.58;;;;;;;;;;5106226;28;20043;-72
2022/08/07 03:27:11;;;;;;;4.50;2.80;;;;;;;;;;5095360;28;20032;-72
2022/08/07 03:29:39;;;;;;;4.20;3.00;;;;;;;;;;5095080;28;20491;-72
2022/08/07 03:32:07;;;;;;;4.07;2.85;;;;;;;;;;5094955;28;20044;-72
2022/08/07 03:34:33;;;;;;;3.88;3.08;;;;;;;;;;5094975;28;20048;-72
2022/08/07 03:37:04;;;;;;;3.17;2.88;;;;;;;;;;5094506;28;20093;-72
2022/08/07 03:39:32;;;;;;;3.88;3.45;;;;;;;;;;5094068;28;20039;-72
2022/08/07 03:41:58;;;;;;;6.97;3.05;;;;;;;;;;5094513;28;20063;-72
2022/08/07 03:44:25;;;;;;;3.50;3.20;;;;;;;;;;5095286;28;20521;-72
2022/08/07 03:46:51;;;;;;;8.35;3.53;;;;;;;;;;5095107;28;20039;-72
2022/08/07 03:49:17;;;;;;;5.20;3.05;;;;;;;;;;5094481;28;20058;-72
2022/08/07 03:51:43;;;;;;;3.75;3.05;;;;;;;;;;5100561;28;20088;-72
2022/08/07 03:54:10;;;;;;;3.55;3.25;;;;;;;;;;5095098;28;20032;-72
2022/08/07 03:56:38;;;;;;;3.22;2.92;;;;;;;;;;5094829;28;20042;-72
2022/08/07 03:59:05;;;;;;;4.72;3.20;;;;;;;;;;5103818;28;20036;-72
2022/08/07 04:01:32;;;;;;;3.70;2.92;;;;;;;;;;5091790;28;20082;-72
2022/08/07 04:03:58;;;;;;;4.28;3.35;;;;;;;;;;5110617;28;20062;-72
2022/08/07 04:06:24;;;;;;;6.78;3.40;;;;;;;;;;5100588;28;20053;-72
2022/08/07 04:08:51;;;;;;;3.35;3.05;;;;;;;;;;5103897;28;20063;-72
2022/08/07 04:11:17;;;;;;;3.70;3.03;;;;;;;;;;5104834;28;20051;-72
2022/08/07 04:13:44;;;;;;;5.78;3.30;;;;;;;;;;5094476;28;20062;-72
2022/08/07 04:16:10;;;;;;;4.97;3.20;;;;;;;;;;5104821;28;20047;-72
2022/08/07 04:18:36;;;;;;;3.88;3.08;;;;;;;;;;5093614;28;20040;-72
2022/08/07 04:21:03;;;;;;;4.38;2.95;;;;;;;;;;5097781;28;20039;-72
2022/08/07 04:23:31;;;;;;;7.32;3.60;;;;;;;;;;5098039;28;20040;-72
2022/08/07 04:25:58;;;;;;;4.57;3.50;;;;;;;;;;5104709;28;20096;-72
2022/08/07 04:28:24;;;;;;;5.03;3.22;;;;;;;;;;5103268;28;20093;-72
2022/08/07 04:30:50;;;;;;;6.55;3.30;;;;;;;;;;5097285;28;20036;-72
2022/08/07 04:33:17;;;;;;;5.68;3.20;;;;;;;;;;5101917;28;20047;-72
2022/08/07 04:35:46;;;;;;;4.25;2.90;;;;;;;;;;5098723;28;20040;-72
2022/08/07 04:38:12;;;;;;;3.95;2.97;;;;;;;;;;5094944;28;20044;-72
2022/08/07 04:40:40;;;;;;;4.65;3.22;;;;;;;;;;5108636;28;20047;-72
2022/08/07 04:43:06;;;;;;;3.95;3.47;;;;;;;;;;5098157;28;20052;-72
2022/08/07 04:45:50;;;;;;;5.97;3.30;;;;;;;;;;5098061;28;20069;-72
2022/08/07 04:48:31;;;;;;;4.18;3.35;;;;;;;;;;5098785;28;20218;-72
2022/08/07 04:51:09;;;;;;;6.28;3.45;;;;;;;;;;5102210;28;20498;-72
2022/08/07 04:53:35;;;;;;;5.57;3.22;;;;;;;;;;5098817;28;20054;-72
2022/08/07 04:56:05;;;;;;;4.25;3.28;;;;;;;;;;5099430;28;20044;-72
2022/08/07 04:58:33;;;;;;;4.50;3.10;;;;;;;;;;5108451;28;20046;-72
2022/08/07 05:01:06;;;;;;;3.45;3.03;;;;;;;;;;5101087;28;20043;-72
2022/08/07 05:03:40;;;;;;;5.60;3.20;;;;;;;;;;5101299;28;20051;-72
2022/08/07 05:06:13;;;;;;;5.07;3.13;;;;;;;;;;5098612;28;20043;-72
2022/08/07 05:08:45;;;;;;;7.60;3.55;;;;;;;;;;5101702;28;20070;-72
2022/08/07 05:11:11;;;;;;;6.20;3.30;;;;;;;;;;5098833;28;20051;-72
2022/08/07 05:13:44;;;;;;;6.32;3.50;;;;;;;;;;5107866;28;20055;-72
2022/08/07 05:16:12;;;;;;;4.97;3.22;;;;;;;;;;5107894;28;20107;-72
2022/08/07 05:18:48;;;;;;;8.38;3.75;;;;;;;;;;5106414;28;20039;-72
2022/08/07 05:21:17;;;;;;;5.65;2.92;;;;;;;;;;5103407;28;20113;-72
2022/08/07 05:24:03;;;;;;;6.90;3.50;;;;;;;;;;5102048;28;20070;-72
2022/08/07 05:26:31;;;;;;;3.78;3.25;;;;;;;;;;5097888;28;20101;-72
2022/08/07 05:28:58;;;;;;;6.53;3.53;;;;;;;;;;5101601;28;20485;-72
2022/08/07 05:31:27;;;;;;;4.10;3.38;;;;;;;;;;5103734;28;20040;-72
2022/08/07 05:33:53;;;;;;;4.78;3.28;;;;;;;;;;5097688;28;20115;-72
2022/08/07 05:36:20;;;;;;;4.28;3.45;;;;;;;;;;5096877;28;20040;-72
2022/08/07 05:38:46;;;;;;;5.40;3.17;;;;;;;;;;5099799;28;20067;-72
2022/08/07 05:41:13;;;;;;;4.20;3.20;;;;;;;;;;5113748;28;20040;-72
2022/08/07 05:43:40;;;;;;;3.65;3.35;;;;;;;;;;5113787;28;20514;-72
2022/08/07 05:46:06;;;;;;;8.27;3.70;;;;;;;;;;5097716;28;20092;-72
2022/08/07 05:48:33;;;;;;;6.85;3.30;;;;;;;;;;5100972;28;20048;-72
2022/08/07 05:51:00;;;;;;;8.35;4.18;;;;;;;;;;5100821;28;20032;-72
2022/08/07 05:53:26;;;;;;;5.70;3.30;;;;;;;;;;5097779;28;20531;-72
2022/08/07 05:55:54;;;;;;;8.20;3.13;;;;;;;;;;5100134;28;20046;-72
2022/08/07 05:58:22;;;;;;;5.40;2.90;;;;;;;;;;5113067;28;20044;-72
2022/08/07 06:00:49;;;;;;;4.90;3.50;;;;;;;;;;5108554;28;20490;-73
2022/08/07 06:03:15;;;;;;;3.30;2.78;;;;;;;;;;5102917;28;20048;-73
2022/08/07 06:05:42;;;;;;;2.80;2.60;;;;;;;;;;5106107;28;20075;-72
2022/08/07 06:08:08;;;;;;;2.88;2.58;;;;;;;;;;5096779;28;20048;-73
2022/08/07 06:10:36;;;;;;;2.92;2.63;;;;;;;;;;5104186;28;20040;-73
2022/08/07 06:13:02;;;;;;;3.58;2.60;;;;;;;;;;5100815;28;20394;-73
2022/08/07 06:15:29;;;;;;;3.83;2.80;;;;;;;;;;5097531;28;20100;-73
2022/08/07 06:17:55;;;;;;;3.28;2.85;;;;;;;;;;5100401;28;20615;-73
2022/08/07 06:20:25;;;;;;;3.72;2.70;;;;;;;;;;5098643;28;20063;-73
2022/08/07 06:22:52;;;;;;;8.48;3.00;;;;;;;;;;5100175;28;20127;-72
2022/08/07 06:25:18;;;;;;;3.97;2.60;;;;;;;;;;5101993;28;20039;-73
2022/08/07 06:27:44;;;;;;;4.00;2.70;;;;;;;;;;5107150;28;20052;-73
2022/08/07 06:30:11;;;;;;;8.93;2.85;;;;;;;;;;5096947;28;20039;-73
2022/08/07 06:32:37;;;;;;;6.00;3.17;;;;;;;;;;5098499;28;20548;-73
2022/08/07 06:35:03;;;;;;;2.72;2.53;;;;;;;;;;5096457;28;20055;-73
2022/08/07 06:37:29;;;;;;;3.92;2.90;;;;;;;;;;5111655;28;20028;-73
2022/08/07 06:39:55;;;;;;;2.60;2.38;;;;;;;;;;5096880;28;20040;-73
2022/08/07 06:42:24;;;;;;;3.10;2.80;;;;;;;;;;5095896;28;20048;-73
2022/08/07 06:44:51;;;;;;;5.63;2.45;;;;;;;;;;5103704;28;20059;-73
2022/08/07 06:47:18;;;;;;;5.05;2.65;;;;;;;;;;5096026;28;20047;-73
2022/08/07 06:49:44;;;;;;;3.45;2.67;;;;;;;;;;5096178;28;20407;-72
2022/08/07 06:52:12;;;;;;;5.95;3.05;;;;;;;;;;5103234;28;20043;-73
2022/08/07 06:54:38;;;;;;;4.43;3.35;;;;;;;;;;5098586;28;20502;-72
2022/08/07 06:57:06;;;;;;;3.65;2.92;;;;;;;;;;5099682;28;20128;-73
2022/08/07 06:59:33;;;;;;;2.90;2.60;;;;;;;;;;5095869;28;20040;-73
2022/08/07 07:02:00;;;;;;;3.38;2.50;;;;;;;;;;5095465;28;20640;-73
2022/08/07 07:04:26;;;;;;;4.25;2.42;;;;;;;;;;5097981;28;20057;-73
2022/08/07 07:06:53;;;;;;;3.28;2.45;;;;;;;;;;5094792;28;20040;-73
2022/08/07 07:09:27;;;;;;;3.28;2.20;;;;;;;;;;5093744;28;20047;-73
2022/08/07 07:12:08;;;;;;;3.90;2.30;;;;;;;;;;5101454;28;20039;-72
2022/08/07 07:14:37;;;;;;;2.40;1.90;;;;;;;;;;5101821;28;20228;-73
2022/08/07 07:17:09;;;;;;;6.85;2.38;;;;;;;;;;5094255;28;20054;-72
2022/08/07 07:19:38;;;;;;;16.75;2.60;;;;;;;;;;5095375;28;20056;-73
2022/08/07 07:22:05;;;;;;;8.43;2.28;;;;;;;;;;5094873;28;20036;-73
2022/08/07 07:24:31;;;;;;;3.92;2.45;;;;;;;;;;5094183;28;20529;-73
2022/08/07 07:26:58;;;;;;;2.80;2.08;;;;;;;;;;5094891;28;20126;-73
2022/08/07 07:29:27;;;;;;;3.60;2.30;;;;;;;;;;5094806;28;20036;-73
2022/08/07 07:31:54;;;;;;;5.03;2.10;;;;;;;;;;5094841;28;20088;-73
2022/08/07 07:34:31;;;;;;;2.47;2.08;;;;;;;;;;5094727;28;20048;-73
2022/08/07 07:36:58;;;;;;;4.13;2.22;;;;;;;;;;5094564;28;20036;-73
2022/08/07 07:39:25;;;;;;;4.15;2.50;;;;;;;;;;5094506;28;20044;-73
2022/08/07 07:41:52;;;;;;;3.28;2.22;;;;;;;;;;5094943;28;20052;-73
2022/08/07 07:44:19;;;;;;;3.20;2.58;;;;;;;;;;5094249;28;20036;-73
2022/08/07 07:46:47;;;;;;;3.03;2.03;;;;;;;;;;5094665;28;20059;-73
2022/08/07 07:49:14;;;;;;;5.72;2.42;;;;;;;;;;5094545;28;20031;-73
2022/08/07 07:51:41;;;;;;;2.80;2.00;;;;;;;;;;5078135;28;20040;-73
2022/08/07 07:54:08;;;;;;;6.25;2.97;;;;;;;;;;5093630;28;20040;-69
2022/08/07 07:56:34;;;;;;;4.53;2.40;;;;;;;;;;5093649;28;20065;-69
2022/08/07 07:59:04;;;;;;;4.03;2.60;;;;;;;;;;5099053;28;20044;-69
2022/08/07 08:01:31;;;;;;;3.13;2.10;;;;;;;;;;5074158;28;20033;-69
2022/08/07 08:04:00;;;;;;;4.28;2.58;;;;;;;;;;5093716;28;20103;-69
2022/08/07 08:06:26;;;;;;;2.25;1.77;;;;;;;;;;5097040;28;20494;-69
2022/08/07 08:08:53;;;;;;;3.47;2.03;;;;;;;;;;5097609;28;20039;-69
2022/08/07 08:11:19;;;;;;;2.70;2.40;;;;;;;;;;5101940;28;20074;-69
2022/08/07 08:13:48;;;;;;;3.80;2.38;;;;;;;;;;5093714;28;20047;-69
2022/08/07 08:16:16;;;;;;;3.05;2.35;;;;;;;;;;5108715;28;20036;-69
2022/08/07 08:18:42;;;;;;;4.35;2.28;;;;;;;;;;5107978;28;20066;-69
2022/08/07 08:27:03;;;;;;;3.70;2.40;;;;;;;;;;5114527;28;20031;-68
2022/08/07 08:29:26;;;;;;;2.50;2.30;;;;;;;;;;5093721;28;20047;-68
2022/08/07 08:31:52;;;;;;;4.45;2.55;;;;;;;;;;5096952;28;20039;-68
2022/08/07 08:34:18;;;;;;;4.68;2.20;;;;;;;;;;5095970;28;20595;-68
2022/08/07 08:36:48;;;;;;;5.32;2.47;;;;;;;;;;5103853;28;20048;-68
2022/08/07 08:39:14;;;;;;;4.22;2.30;;;;;;;;;;5093157;28;20044;-69
2022/08/07 08:41:49;;;;;;;4.75;2.40;;;;;;;;;;5093271;28;20052;-68
2022/08/07 08:44:19;;;;;;;3.45;2.30;;;;;;;;;;5093785;28;20067;-70
2022/08/07 08:46:48;;;;;;;2.03;1.93;;;;;;;;;;5097502;28;20521;-68
2022/08/07 08:49:25;;;;;;;2.88;2.30;;;;;;;;;;5114259;28;20042;-69
2022/08/07 08:51:56;;;;;;;4.22;2.28;;;;;;;;;;5112345;28;20141;-69
2022/08/07 08:54:41;;;;;;;7.90;7.00;;;;;;;;;;5115361;28;20043;-68
2022/08/07 08:57:09;;;;;;;6.65;4.38;;;;;;;;;;5095014;28;20048;-68
2022/08/07 08:59:35;;;;;;;3.45;2.30;;;;;;;;;;5094930;28;20463;-69
2022/08/07 09:02:10;;;;;;;3.50;2.28;;;;;;;;;;5093863;28;20039;-69
2022/08/07 09:04:57;;;;;;;6.32;2.08;;;;;;;;;;5094546;28;20052;-69
2022/08/07 09:07:46;;;;;;;2.85;2.05;;;;;;;;;;5094928;28;20044;-70
2022/08/07 09:10:21;;;;;;;2.92;2.15;;;;;;;;;;5085498;28;20036;-70
2022/08/07 09:13:03;;;;;;;4.63;2.50;;;;;;;;;;5106601;28;20085;-70
2022/08/07 09:15:38;;;;;;;3.88;2.15;;;;;;;;;;5113887;28;20502;-70
2022/08/07 09:18:10;;;;;;;2.47;2.03;;;;;;;;;;5112415;28;20039;-70
2022/08/07 09:20:39;;;;;;;3.22;2.22;;;;;;;;;;5104357;28;20085;-69
2022/08/07 09:23:12;;;;;;;2.10;1.90;;;;;;;;;;5104471;28;20068;-70
2022/08/07 09:25:44;;;;;;;3.53;2.28;;;;;;;;;;5114316;28;20563;-70
2022/08/07 09:28:18;;;;;;;3.53;1.80;;;;;;;;;;5112594;28;20529;-69
2022/08/07 09:30:44;;;;;;;3.67;2.30;;;;;;;;;;5095030;28;20086;-70
2022/08/07 09:33:22;;;;;;;3.50;2.03;;;;;;;;;;5098573;28;20043;-70
2022/08/07 09:35:49;;;;;;;4.28;2.10;;;;;;;;;;5097178;28;20128;-70
2022/08/07 09:38:19;;;;;;;2.83;1.90;;;;;;;;;;5097930;28;20131;-70
2022/08/07 09:41:04;;;;;;;3.45;2.03;;;;;;;;;;5105885;28;20494;-70
2022/08/07 09:43:30;;;;;;;4.40;1.70;;;;;;;;;;5117009;28;20052;-69
2022/08/07 09:46:13;;;;;;;3.50;1.88;;;;;;;;;;5101280;28;20048;-70
2022/08/07 09:48:42;;;;;;;3.63;1.98;;;;;;;;;;5097464;28;20052;-69
2022/08/07 09:51:19;;;;;;;3.20;2.05;;;;;;;;;;5112898;28;20039;-70
2022/08/07 09:53:50;;;;;;;3.55;2.05;;;;;;;;;;5077302;28;20052;-70
2022/08/07 09:56:16;;;;;;;;;;;;;;;;;;5096444;28;20047;-70
2022/08/07 09:58:45;;;;;;;4.15;2.30;;;;;;;;;;5096948;28;19908;-70
2022/08/07 10:01:23;;;;;;;3.33;1.73;;;;;;;;;;5096816;28;20036;-71
2022/08/07 10:04:05;;;;;;;4.78;2.10;;;;;;;;;;5097979;28;20044;-70
2022/08/07 10:06:41;;;;;;;4.32;2.00;;;;;;;;;;5096617;28;20048;-70
2022/08/07 10:09:19;;;;;;;3.17;2.10;;;;;;;;;;5097503;28;20093;-70
2022/08/07 10:11:55;;;;;;;3.53;1.90;;;;;;;;;;5097314;28;20039;-70
2022/08/07 10:14:24;;;;;;;4.25;1.85;;;;;;;;;;5096756;28;20420;-71
2022/08/07 10:17:05;;;;;;;3.30;2.08;;;;;;;;;;5097665;28;20046;-71
2022/08/07 10:19:39;;;;;;;3.38;1.92;;;;;;;;;;5098480;28;20039;-71
2022/08/07 10:22:22;;;;;;;3.60;2.00;;;;;;;;;;5108809;28;20040;-71
2022/08/07 10:25:10;;;;;;;3.35;1.98;;;;;;;;;;5096520;28;20567;-71
2022/08/07 10:27:45;;;;;;;2.03;1.92;;;;;;;;;;5096085;28;20052;-71
2022/08/07 10:30:32;;;;;;;3.95;2.20;;;;;;;;;;5096875;28;20035;-70
2022/08/07 10:33:17;;;;;;;4.85;1.88;;;;;;;;;;5085167;28;20093;-69
2022/08/07 10:35:52;;;;;;;5.65;2.38;;;;;;;;;;5116742;28;20066;-70
2022/08/07 10:38:36;;;;;;;2.10;1.90;;;;;;;;;;5116938;28;20050;-70
2022/08/07 10:41:15;;;;;;;3.17;2.28;;;;;;;;;;5116297;28;20517;-69
2022/08/07 10:43:55;;;;;;;2.50;1.85;;;;;;;;;;5115391;28;20096;-70
2022/08/07 10:46:28;;;;;;;2.72;1.95;;;;;;;;;;5116311;28;20506;-69
2022/08/07 10:49:04;;;;;;;4.88;1.90;;;;;;;;;;5116385;28;20040;-70
2022/08/07 10:51:40;;;;;;;3.33;1.90;;;;;;;;;;5116177;28;20040;-70
2022/08/07 10:54:12;;;;;;;3.53;1.98;;;;;;;;;;5115855;28;20040;-69
2022/08/07 10:56:57;;;;;;;2.97;1.98;;;;;;;;;;5116002;28;20486;-69
2022/08/07 10:59:32;;;;;;;2.58;1.85;;;;;;;;;;5106300;28;20032;-70
2022/08/07 11:02:05;;;;;;;2.97;2.33;;;;;;;;;;5093968;28;20071;-70
2022/08/07 11:04:50;;;;;;;3.05;2.00;;;;;;;;;;5094621;28;20040;-70
2022/08/07 11:07:40;;;;;;;2.15;1.92;;;;;;;;;;5090119;28;20456;-70
2022/08/07 11:10:10;;;;;;;3.40;1.77;;;;;;;;;;5094291;28;20040;-70
2022/08/07 11:12:42;;;;;;;3.45;1.83;;;;;;;;;;5094490;28;20577;-70
2022/08/07 11:15:14;;;;;;;3.22;2.13;;;;;;;;;;5085319;28;20058;-71
2022/08/07 11:17:40;;;;;;;2.88;2.03;;;;;;;;;;5096848;28;20043;-72
2022/08/07 11:20:08;;;;;;;4.70;2.00;;;;;;;;;;5099796;28;20044;-72
2022/08/07 11:22:40;;;;;;;3.83;1.88;;;;;;;;;;5094276;28;20532;-72
2022/08/07 11:25:12;;;;;;;2.53;1.65;;;;;;;;;;5100681;28;20036;-72
2022/08/07 11:27:44;;;;;;;3.67;1.80;;;;;;;;;;5097263;28;20054;-71
2022/08/07 11:30:16;;;;;;;2.03;1.83;;;;;;;;;;5090048;28;20391;-71
2022/08/07 11:32:50;;;;;;;2.10;1.90;;;;;;;;;;5089890;28;20040;-70
2022/08/07 11:35:29;;;;;;;4.65;2.20;;;;;;;;;;5093847;28;20051;-70
2022/08/07 11:38:07;;;;;;;3.55;2.25;;;;;;;;;;5092931;28;20085;-72
2022/08/07 11:40:39;;;;;;;15.75;2.28;;;;;;;;;;5097245;28;20027;-74
2022/08/07 11:43:12;;;;;;;4.88;2.20;;;;;;;;;;5090361;28;20057;-70
2022/08/07 11:48:20;;;;;;;9.32;2.38;;;;;;;;;;5510450;22;19948;-70
2022/08/07 11:50:54;;;;;;;2.20;2.00;;;;;;;;;;5014489;28;20503;-73
2022/08/07 11:53:32;;;;;;;5.90;2.15;;;;;;;;;;5023418;28;20049;-72
2022/08/07 11:56:14;;;;;;;4.18;2.03;;;;;;;;;;5017828;28;20108;-70
2022/08/07 11:58:56;;;;;;;4.57;2.20;;;;;;;;;;5016551;28;20069;-69
2022/08/07 12:01:41;;;;;;;4.50;2.00;;;;;;;;;;5012130;28;20073;-69
2022/08/07 12:04:26;;;;;;;3.05;1.50;;;;;;;;;;5011752;28;20124;-68
2022/08/07 12:06:54;;;;;;;9.43;2.10;;;;;;;;;;5013289;28;20555;-71
2022/08/07 12:09:41;;;;;;;4.63;2.35;;;;;;;;;;5025681;28;20057;-70
2022/08/07 12:12:12;;;;;;;7.43;2.70;;;;;;;;;;5016574;28;20050;-69
2022/08/07 12:14:48;;;;;;;7.45;2.83;;;;;;;;;;5015995;28;20041;-68
2022/08/07 12:17:18;;;;;;;5.15;2.65;;;;;;;;;;5014690;28;20116;-71
2022/08/07 12:19:49;;;;;;;4.60;2.05;;;;;;;;;;5014612;28;20032;-71
2022/08/07 12:22:34;;;;;;;6.60;2.38;;;;;;;;;;5014518;28;20042;-69
2022/08/07 12:28:07;;;;;;;6.45;2.38;;;;;;;;;;5008191;28;20103;-71
2022/08/07 12:30:35;;;;;;;3.35;2.13;;;;;;;;;;5010322;28;20053;-69
2022/08/07 12:33:04;;;;;;;2.47;2.08;;;;;;;;;;5014926;28;20519;-70
2022/08/07 12:35:33;;;;;;;3.05;1.80;;;;;;;;;;5000436;28;20041;-74
2022/08/07 12:37:59;;;;;;;5.82;2.53;;;;;;;;;;5012379;28;20122;-78
2022/08/07 12:40:28;;;;;;;3.83;2.53;;;;;;;;;;5015676;28;20053;-78
2022/08/07 12:42:56;;;;;;;7.68;2.40;;;;;;;;;;5013417;28;20152;-76
2022/08/07 12:45:26;;;;;;;4.57;1.90;;;;;;;;;;5010089;28;20537;-70
2022/08/07 12:48:00;;;;;;;4.97;2.50;;;;;;;;;;5019327;28;20132;-72
2022/08/07 12:50:33;;;;;;;4.57;2.80;;;;;;;;;;5016560;28;20104;-71
2022/08/07 12:53:15;;;;;;;2.40;2.00;;;;;;;;;;5015029;28;20034;-71
2022/08/07 12:55:43;;;;;;;5.38;2.60;;;;;;;;;;5013549;28;20065;-71
2022/08/07 12:58:14;;;;;;;4.03;2.25;;;;;;;;;;5012719;28;20388;-70
2022/08/07 13:00:59;;;;;;;3.30;2.20;;;;;;;;;;5012514;28;20504;-70
2022/08/07 13:03:31;;;;;;;4.85;2.38;;;;;;;;;;5013885;28;20038;-70
2022/08/07 13:06:06;;;;;;;3.75;2.10;;;;;;;;;;5023922;28;20160;-71
2022/08/07 13:08:32;;;;;;;2.25;2.05;;;;;;;;;;5009244;28;20052;-70
2022/08/07 13:11:17;;;;;;;4.25;1.80;;;;;;;;;;5015577;28;20046;-70
2022/08/07 13:13:58;;;;;;;2.70;2.08;;;;;;;;;;5017272;28;20046;-70
2022/08/07 13:16:40;;;;;;;3.25;1.90;;;;;;;;;;5016937;28;20126;-69
2022/08/07 13:19:08;;;;;;;2.47;2.20;;;;;;;;;;5014066;28;20096;-70
2022/08/07 13:21:45;;;;;;;1.77;1.50;;;;;;;;;;5009125;28;20038;-69
2022/08/07 13:24:28;;;;;;;5.50;1.73;;;;;;;;;;5008779;28;20038;-71
2022/08/07 13:27:14;;;;;;;2.25;1.70;;;;;;;;;;5012682;28;20567;-70
2022/08/07 13:29:49;;;;;;;3.03;1.70;;;;;;;;;;5008793;28;20037;-71
2022/08/07 13:32:27;;;;;;;3.10;1.70;;;;;;;;;;5020369;28;20083;-71
2022/08/07 13:34:53;;;;;;;1.85;1.65;;;;;;;;;;5013186;28;20045;-70
2022/08/07 13:37:28;;;;;;;2.85;1.70;;;;;;;;;;5012010;28;20034;-71
2022/08/07 13:40:14;;;;;;;1.92;1.55;;;;;;;;;;5005499;28;20037;-71
2022/08/07 13:42:42;;;;;;;2.28;1.60;;;;;;;;;;5015904;28;20037;-71
2022/08/07 13:45:10;;;;;;;2.47;1.60;;;;;;;;;;4998374;28;20116;-71
2022/08/07 13:47:37;;;;;;;2.50;1.55;;;;;;;;;;4994950;28;20402;-71
2022/08/07 13:50:05;;;;;;;2.60;1.70;;;;;;;;;;4994041;28;20042;-71
2022/08/07 13:52:32;;;;;;;3.72;1.70;;;;;;;;;;5012011;28;20050;-70
2022/08/07 13:54:59;;;;;;;2.28;1.50;;;;;;;;;;5011453;28;20034;-70
2022/08/07 13:57:27;;;;;;;2.33;1.40;;;;;;;;;;4978508;28;20129;-70
2022/08/07 13:59:56;;;;;;;3.60;1.73;;;;;;;;;;5016310;28;20042;-68
2022/08/07 14:02:24;;;;;;;2.00;1.73;;;;;;;;;;5014887;28;20037;-69
2022/08/07 14:04:53;;;;;;;5.57;1.77;;;;;;;;;;5015840;28;20400;-68
2022/08/07 14:07:20;;;;;;;5.03;1.90;;;;;;;;;;5014142;28;20047;-68
2022/08/07 14:09:51;;;;;;;2.03;1.70;;;;;;;;;;5014996;28;20149;-68
2022/08/07 14:12:25;;;;;;;3.10;1.70;;;;;;;;;;5008524;28;20038;-68
2022/08/07 14:14:57;;;;;;;2.03;1.70;;;;;;;;;;5012013;28;20061;-68
2022/08/07 14:17:24;;;;;;;5.63;1.70;;;;;;;;;;5014534;28;20076;-68
2022/08/07 14:19:59;;;;;;;2.20;1.70;;;;;;;;;;5013304;28;20124;-68
2022/08/07 14:22:30;;;;;;;2.25;1.60;;;;;;;;;;5015351;28;20041;-68
2022/08/07 14:25:00;;;;;;;1.65;1.55;;;;;;;;;;5015189;28;20064;-69
2022/08/07 14:27:31;;;;;;;2.22;1.48;;;;;;;;;;5015699;28;20065;-68
2022/08/07 14:30:01;;;;;;;1.70;1.60;;;;;;;;;;5016048;28;20566;-68
2022/08/07 14:32:28;;;;;;;2.33;1.48;;;;;;;;;;5015542;28;20411;-68
2022/08/07 14:34:56;;;;;;;1.65;1.55;;;;;;;;;;5017237;28;20488;-69
2022/08/07 14:37:23;;;;;;;3.85;1.67;;;;;;;;;;5016133;28;20095;-68
2022/08/07 14:39:50;;;;;;;1.75;1.60;;;;;;;;;;5025639;28;20124;-69
2022/08/07 14:42:21;;;;;;;2.03;1.70;;;;;;;;;;5014131;28;20042;-68
2022/08/07 14:44:51;;;;;;;3.60;2.17;;;;;;;;;;5014986;28;20531;-69
2022/08/07 14:47:18;;;;;;;2.93;1.73;;;;;;;;;;5014087;28;20112;-69
2022/08/07 14:49:45;;;;;;;1.73;1.42;;;;;;;;;;5015032;28;20260;-68
2022/08/07 14:52:11;;;;;;;2.22;1.42;;;;;;;;;;5028217;28;20136;-68
2022/08/07 14:54:38;;;;;;;1.85;1.38;;;;;;;;;;5033412;28;20049;-69
2022/08/07 14:57:06;;;;;;;2.78;1.52;;;;;;;;;;5030596;28;20415;-68
2022/08/07 14:59:36;;;;;;;11.82;1.85;;;;;;;;;;5032345;28;20126;-68
2022/08/07 15:02:02;;;;;;;;;;;;;;;;;;5032176;28;20045;-68
2022/08/07 15:04:29;;;;;;;1.85;1.50;;;;;;;;;;5031389;28;19916;-68
2022/08/07 15:06:56;;;;;;;2.78;1.60;;;;;;;;;;5032287;28;20039;-68
2022/08/07 15:09:22;;;;;;;1.60;1.50;;;;;;;;;;5031594;28;20049;-68
2022/08/07 15:11:59;;;;;;;1.60;1.50;;;;;;;;;;5031906;28;20041;-68